sensor_id;sensor_type;location;lat;lon;timestamp;temperature;humidity
3846;DHT22;1938;50.812;7.738;2023-11-19T00:02:23;8.10;99.90
3846;DHT22;1938;50.812;7.738;2023-11-19T00:04:50;8.10;99.90
3846;DHT22;1938;50.812;7.738;2023-11-19T00:07:15;8.10;99.90
3846;DHT22;1938;50.812;7.738;2023-11-19T00:09:41;8.10;99.90
3846;DHT22;1938;50.812;7.738;2023-11-19T00:12:07;8.10;99.90
3846;DHT22;1938;50.812;7.738;2023-11-19T00:14:33;8.10;99.90
3846;DHT22;1938;50.812;7.738;2023-11-19T00:17:00;8.10;99.90
3846;DHT22;1938;50.812;7.738;2023-11-19T00:19:25;8.20;99.90
3846;DHT22;1938;50.812;7.738;2023-11-19T00:21:52;8.20;99.90
3846;DHT22;1938;50.812;7.738;2023-11-19T00:24:18;8.20;99.90
3846;DHT22;1938;50.812;7.738;2023-11-19T00:26:44;8.20;99.90
3846;DHT22;1938;50.812;7.738;2023-11-19T00:29:10;8.30;99.90
3846;DHT22;1938;50.812;7.738;2023-11-19T00:31:36;8.30;99.90
3846;DHT22;1938;50.812;7.738;2023-11-19T00:34:02;8.30;99.90
3846;DHT22;1938;50.812;7.738;2023-11-19T00:36:29;8.40;99.90
3846;DHT22;1938;50.812;7.738;2023-11-19T00:38:54;8.40;99.90
3846;DHT22;1938;50.812;7.738;2023-11-19T00:41:20;8.40;99.90
3846;DHT22;1938;50.812;7.738;2023-11-19T00:43:46;8.40;99.90
3846;DHT22;1938;50.812;7.738;2023-11-19T00:46:12;8.40;99.90
3846;DHT22;1938;50.812;7.738;2023-11-19T00:48:39;8.40;99.90
3846;DHT22;1938;50.812;7.738;2023-11-19T00:51:05;8.50;99.90
3846;DHT22;1938;50.812;7.738;2023-11-19T00:53:30;8.50;99.90
3846;DHT22;1938;50.812;7.738;2023-11-19T00:55:57;8.50;99.90
3846;DHT22;1938;50.812;7.738;2023-11-19T00:58:23;8.50;99.90
3846;DHT22;1938;50.812;7.738;2023-11-19T01:00:48;8.50;99.90
3846;DHT22;1938;50.812;7.738;2023-11-19T01:03:14;8.50;99.90
3846;DHT22;1938;50.812;7.738;2023-11-19T01:05:41;8.50;99.90
3846;DHT22;1938;50.812;7.738;2023-11-19T01:08:07;8.50;99.90
3846;DHT22;1938;50.812;7.738;2023-11-19T01:10:33;8.50;99.90
3846;DHT22;1938;50.812;7.738;2023-11-19T01:12:59;8.60;99.90
3846;DHT22;1938;50.812;7.738;2023-11-19T01:15:25;8.60;99.90
3846;DHT22;1938;50.812;7.738;2023-11-19T01:17:50;8.60;99.90
3846;DHT22;1938;50.812;7.738;2023-11-19T01:20:16;8.60;99.90
3846;DHT22;1938;50.812;7.738;2023-11-19T01:22:42;8.70;99.90
3846;DHT22;1938;50.812;7.738;2023-11-19T01:25:09;8.60;99.90
3846;DHT22;1938;50.812;7.738;2023-11-19T01:27:34;8.70;99.90
3846;DHT22;1938;50.812;7.738;2023-11-19T01:30:01;8.70;99.90
3846;DHT22;1938;50.812;7.738;2023-11-19T01:32:28;8.70;99.90
3846;DHT22;1938;50.812;7.738;2023-11-19T01:34:54;8.70;99.90
3846;DHT22;1938;50.812;7.738;2023-11-19T01:37:20;8.70;99.90
3846;DHT22;1938;50.812;7.738;2023-11-19T01:39:46;8.80;99.90
3846;DHT22;1938;50.812;7.738;2023-11-19T01:42:12;8.80;99.90
3846;DHT22;1938;50.812;7.738;2023-11-19T01:44:37;8.80;99.90
3846;DHT22;1938;50.812;7.738;2023-11-19T01:47:03;8.80;99.90
3846;DHT22;1938;50.812;7.738;2023-11-19T01:49:30;8.80;99.90
3846;DHT22;1938;50.812;7.738;2023-11-19T01:51:57;8.70;99.90
3846;DHT22;1938;50.812;7.738;2023-11-19T01:54:24;8.80;99.90
3846;DHT22;1938;50.812;7.738;2023-11-19T01:56:52;8.80;99.90
3846;DHT22;1938;50.812;7.738;2023-11-19T01:59:18;8.80;99.90
3846;DHT22;1938;50.812;7.738;2023-11-19T02:01:46;8.80;99.90
3846;DHT22;1938;50.812;7.738;2023-11-19T02:04:12;8.80;99.90
3846;DHT22;1938;50.812;7.738;2023-11-19T02:06:40;8.80;99.90
3846;DHT22;1938;50.812;7.738;2023-11-19T02:09:07;8.80;99.90
3846;DHT22;1938;50.812;7.738;2023-11-19T02:11:34;8.90;99.90
3846;DHT22;1938;50.812;7.738;2023-11-19T02:14:01;8.90;99.90
3846;DHT22;1938;50.812;7.738;2023-11-19T02:16:28;8.90;99.90
3846;DHT22;1938;50.812;7.738;2023-11-19T02:18:54;9.00;99.90
3846;DHT22;1938;50.812;7.738;2023-11-19T02:21:19;9.00;99.90
3846;DHT22;1938;50.812;7.738;2023-11-19T02:23:46;9.00;99.90
3846;DHT22;1938;50.812;7.738;2023-11-19T02:26:21;9.00;99.90
3846;DHT22;1938;50.812;7.738;2023-11-19T02:28:49;9.00;99.90
3846;DHT22;1938;50.812;7.738;2023-11-19T02:31:15;9.00;99.90
3846;DHT22;1938;50.812;7.738;2023-11-19T02:33:41;9.00;99.90
3846;DHT22;1938;50.812;7.738;2023-11-19T02:36:07;9.00;99.90
3846;DHT22;1938;50.812;7.738;2023-11-19T02:38:34;9.00;99.90
3846;DHT22;1938;50.812;7.738;2023-11-19T02:41:01;9.10;99.90
3846;DHT22;1938;50.812;7.738;2023-11-19T02:43:32;9.10;99.90
3846;DHT22;1938;50.812;7.738;2023-11-19T02:46:02;9.10;99.90
3846;DHT22;1938;50.812;7.738;2023-11-19T02:48:29;9.20;99.90
3846;DHT22;1938;50.812;7.738;2023-11-19T02:50:57;9.10;99.90
3846;DHT22;1938;50.812;7.738;2023-11-19T02:53:24;9.10;99.90
3846;DHT22;1938;50.812;7.738;2023-11-19T02:55:50;9.20;99.90
3846;DHT22;1938;50.812;7.738;2023-11-19T02:58:16;9.20;99.90
3846;DHT22;1938;50.812;7.738;2023-11-19T03:00:53;9.20;99.90
3846;DHT22;1938;50.812;7.738;2023-11-19T03:03:35;9.20;99.90
3846;DHT22;1938;50.812;7.738;2023-11-19T03:06:06;9.20;99.90
3846;DHT22;1938;50.812;7.738;2023-11-19T03:08:32;9.30;99.90
3846;DHT22;1938;50.812;7.738;2023-11-19T03:10:58;9.30;99.90
3846;DHT22;1938;50.812;7.738;2023-11-19T03:13:24;9.30;99.90
3846;DHT22;1938;50.812;7.738;2023-11-19T03:15:50;9.30;99.90
3846;DHT22;1938;50.812;7.738;2023-11-19T03:18:16;9.30;99.90
3846;DHT22;1938;50.812;7.738;2023-11-19T03:20:42;9.30;99.90
3846;DHT22;1938;50.812;7.738;2023-11-19T03:23:08;9.30;99.90
3846;DHT22;1938;50.812;7.738;2023-11-19T03:25:33;9.30;99.90
3846;DHT22;1938;50.812;7.738;2023-11-19T03:28:00;9.30;99.90
3846;DHT22;1938;50.812;7.738;2023-11-19T03:30:32;9.30;99.90
3846;DHT22;1938;50.812;7.738;2023-11-19T03:32:58;9.40;99.90
3846;DHT22;1938;50.812;7.738;2023-11-19T03:35:25;9.30;99.90
3846;DHT22;1938;50.812;7.738;2023-11-19T03:37:51;9.30;99.90
3846;DHT22;1938;50.812;7.738;2023-11-19T03:40:18;9.30;99.90
3846;DHT22;1938;50.812;7.738;2023-11-19T03:42:47;9.30;99.90
3846;DHT22;1938;50.812;7.738;2023-11-19T03:45:13;9.30;99.90
3846;DHT22;1938;50.812;7.738;2023-11-19T03:47:39;9.40;99.90
3846;DHT22;1938;50.812;7.738;2023-11-19T03:50:06;9.40;99.90
3846;DHT22;1938;50.812;7.738;2023-11-19T03:52:33;9.40;99.90
3846;DHT22;1938;50.812;7.738;2023-11-19T03:54:59;9.40;99.90
3846;DHT22;1938;50.812;7.738;2023-11-19T03:57:24;9.40;99.90
3846;DHT22;1938;50.812;7.738;2023-11-19T03:59:51;9.50;99.90
3846;DHT22;1938;50.812;7.738;2023-11-19T04:02:17;9.50;99.90
3846;DHT22;1938;50.812;7.738;2023-11-19T04:04:43;9.50;99.90
3846;DHT22;1938;50.812;7.738;2023-11-19T04:07:08;9.50;99.90
3846;DHT22;1938;50.812;7.738;2023-11-19T04:09:34;9.60;99.90
3846;DHT22;1938;50.812;7.738;2023-11-19T04:12:01;9.60;99.90
3846;DHT22;1938;50.812;7.738;2023-11-19T04:14:27;9.60;99.90
3846;DHT22;1938;50.812;7.738;2023-11-19T04:16:53;9.60;99.90
3846;DHT22;1938;50.812;7.738;2023-11-19T04:19:19;9.60;99.90
3846;DHT22;1938;50.812;7.738;2023-11-19T04:21:44;9.60;99.90
3846;DHT22;1938;50.812;7.738;2023-11-19T04:24:10;9.60;99.90
3846;DHT22;1938;50.812;7.738;2023-11-19T04:26:43;9.60;99.90
3846;DHT22;1938;50.812;7.738;2023-11-19T04:29:12;9.60;99.90
3846;DHT22;1938;50.812;7.738;2023-11-19T04:31:38;9.60;99.90
3846;DHT22;1938;50.812;7.738;2023-11-19T04:34:05;9.70;99.90
3846;DHT22;1938;50.812;7.738;2023-11-19T04:36:31;9.70;99.90
3846;DHT22;1938;50.812;7.738;2023-11-19T04:38:58;9.70;99.90
3846;DHT22;1938;50.812;7.738;2023-11-19T04:41:25;9.60;99.90
3846;DHT22;1938;50.812;7.738;2023-11-19T04:43:51;9.70;99.90
3846;DHT22;1938;50.812;7.738;2023-11-19T04:46:17;9.60;99.90
3846;DHT22;1938;50.812;7.738;2023-11-19T04:48:42;9.70;99.90
3846;DHT22;1938;50.812;7.738;2023-11-19T04:51:08;9.70;99.90
3846;DHT22;1938;50.812;7.738;2023-11-19T04:53:35;9.70;99.90
3846;DHT22;1938;50.812;7.738;2023-11-19T04:56:00;9.80;99.90
3846;DHT22;1938;50.812;7.738;2023-11-19T04:58:28;9.70;99.90
3846;DHT22;1938;50.812;7.738;2023-11-19T05:00:55;9.80;99.90
3846;DHT22;1938;50.812;7.738;2023-11-19T05:03:21;9.80;99.90
3846;DHT22;1938;50.812;7.738;2023-11-19T05:05:48;9.80;99.90
3846;DHT22;1938;50.812;7.738;2023-11-19T05:08:14;9.80;99.90
3846;DHT22;1938;50.812;7.738;2023-11-19T05:10:39;9.80;99.90
3846;DHT22;1938;50.812;7.738;2023-11-19T05:13:06;9.80;99.90
3846;DHT22;1938;50.812;7.738;2023-11-19T05:15:32;9.70;99.90
3846;DHT22;1938;50.812;7.738;2023-11-19T05:17:58;9.70;99.90
3846;DHT22;1938;50.812;7.738;2023-11-19T05:20:24;9.70;99.90
3846;DHT22;1938;50.812;7.738;2023-11-19T05:22:49;9.70;99.90
3846;DHT22;1938;50.812;7.738;2023-11-19T05:25:16;9.70;99.90
3846;DHT22;1938;50.812;7.738;2023-11-19T05:27:43;9.70;99.90
3846;DHT22;1938;50.812;7.738;2023-11-19T05:30:08;9.70;99.90
3846;DHT22;1938;50.812;7.738;2023-11-19T05:32:36;9.60;99.90
3846;DHT22;1938;50.812;7.738;2023-11-19T05:35:01;9.70;99.90
3846;DHT22;1938;50.812;7.738;2023-11-19T05:37:27;9.70;99.90
3846;DHT22;1938;50.812;7.738;2023-11-19T05:39:52;9.80;99.90
3846;DHT22;1938;50.812;7.738;2023-11-19T05:42:19;9.80;99.90
3846;DHT22;1938;50.812;7.738;2023-11-19T05:44:44;9.80;99.90
3846;DHT22;1938;50.812;7.738;2023-11-19T05:47:10;9.80;99.90
3846;DHT22;1938;50.812;7.738;2023-11-19T05:49:36;9.80;99.90
3846;DHT22;1938;50.812;7.738;2023-11-19T05:52:02;9.80;99.90
3846;DHT22;1938;50.812;7.738;2023-11-19T05:54:28;9.80;99.90
3846;DHT22;1938;50.812;7.738;2023-11-19T05:56:54;9.80;99.90
3846;DHT22;1938;50.812;7.738;2023-11-19T05:59:20;9.80;99.90
3846;DHT22;1938;50.812;7.738;2023-11-19T06:01:48;9.80;99.90
3846;DHT22;1938;50.812;7.738;2023-11-19T06:04:13;9.80;99.90
3846;DHT22;1938;50.812;7.738;2023-11-19T06:06:39;9.70;99.90
3846;DHT22;1938;50.812;7.738;2023-11-19T06:09:05;9.70;99.90
3846;DHT22;1938;50.812;7.738;2023-11-19T06:11:33;9.70;99.90
3846;DHT22;1938;50.812;7.738;2023-11-19T06:14:00;9.60;99.90
3846;DHT22;1938;50.812;7.738;2023-11-19T06:16:26;9.70;99.90
3846;DHT22;1938;50.812;7.738;2023-11-19T06:18:51;9.70;99.90
3846;DHT22;1938;50.812;7.738;2023-11-19T06:21:18;9.70;99.90
3846;DHT22;1938;50.812;7.738;2023-11-19T06:23:45;9.70;99.90
3846;DHT22;1938;50.812;7.738;2023-11-19T06:26:10;9.80;99.90
3846;DHT22;1938;50.812;7.738;2023-11-19T06:28:36;9.80;99.90
3846;DHT22;1938;50.812;7.738;2023-11-19T06:31:03;9.90;99.90
3846;DHT22;1938;50.812;7.738;2023-11-19T06:33:29;10.00;99.90
3846;DHT22;1938;50.812;7.738;2023-11-19T06:35:54;9.90;99.90
3846;DHT22;1938;50.812;7.738;2023-11-19T06:38:21;10.00;99.90
3846;DHT22;1938;50.812;7.738;2023-11-19T06:40:46;10.00;99.90
3846;DHT22;1938;50.812;7.738;2023-11-19T06:43:12;9.90;99.90
3846;DHT22;1938;50.812;7.738;2023-11-19T06:45:40;10.00;99.90
3846;DHT22;1938;50.812;7.738;2023-11-19T06:48:05;9.90;99.90
3846;DHT22;1938;50.812;7.738;2023-11-19T06:50:31;10.00;99.90
3846;DHT22;1938;50.812;7.738;2023-11-19T06:52:57;10.00;99.90
3846;DHT22;1938;50.812;7.738;2023-11-19T06:55:23;10.00;99.90
3846;DHT22;1938;50.812;7.738;2023-11-19T06:57:48;10.10;99.90
3846;DHT22;1938;50.812;7.738;2023-11-19T07:00:14;10.20;99.90
3846;DHT22;1938;50.812;7.738;2023-11-19T07:02:40;10.30;99.90
3846;DHT22;1938;50.812;7.738;2023-11-19T07:05:06;10.40;99.90
3846;DHT22;1938;50.812;7.738;2023-11-19T07:07:33;10.50;99.90
3846;DHT22;1938;50.812;7.738;2023-11-19T07:09:59;10.50;99.90
3846;DHT22;1938;50.812;7.738;2023-11-19T07:12:24;10.50;99.90
3846;DHT22;1938;50.812;7.738;2023-11-19T07:14:53;10.60;99.90
3846;DHT22;1938;50.812;7.738;2023-11-19T07:17:21;10.60;99.90
3846;DHT22;1938;50.812;7.738;2023-11-19T07:19:49;10.60;99.90
3846;DHT22;1938;50.812;7.738;2023-11-19T07:22:15;10.60;99.90
3846;DHT22;1938;50.812;7.738;2023-11-19T07:24:41;10.60;99.90
3846;DHT22;1938;50.812;7.738;2023-11-19T07:27:08;10.60;99.90
3846;DHT22;1938;50.812;7.738;2023-11-19T07:29:34;10.70;99.90
3846;DHT22;1938;50.812;7.738;2023-11-19T07:32:00;10.70;99.90
3846;DHT22;1938;50.812;7.738;2023-11-19T07:34:27;10.70;99.90
3846;DHT22;1938;50.812;7.738;2023-11-19T07:36:55;10.70;99.90
3846;DHT22;1938;50.812;7.738;2023-11-19T07:39:24;10.70;99.90
3846;DHT22;1938;50.812;7.738;2023-11-19T07:41:50;10.70;99.90
3846;DHT22;1938;50.812;7.738;2023-11-19T07:44:15;10.70;99.90
3846;DHT22;1938;50.812;7.738;2023-11-19T07:46:42;10.70;99.90
3846;DHT22;1938;50.812;7.738;2023-11-19T07:49:10;10.70;99.90
3846;DHT22;1938;50.812;7.738;2023-11-19T07:51:36;10.70;99.90
3846;DHT22;1938;50.812;7.738;2023-11-19T07:54:02;10.70;99.90
3846;DHT22;1938;50.812;7.738;2023-11-19T07:56:29;10.60;99.90
3846;DHT22;1938;50.812;7.738;2023-11-19T07:58:54;10.70;99.90
3846;DHT22;1938;50.812;7.738;2023-11-19T08:01:20;10.70;99.90
3846;DHT22;1938;50.812;7.738;2023-11-19T08:03:46;10.80;99.90
3846;DHT22;1938;50.812;7.738;2023-11-19T08:06:12;10.80;99.90
3846;DHT22;1938;50.812;7.738;2023-11-19T08:08:38;10.60;99.90
3846;DHT22;1938;50.812;7.738;2023-11-19T08:11:05;10.50;99.90
3846;DHT22;1938;50.812;7.738;2023-11-19T08:13:31;10.60;99.90
3846;DHT22;1938;50.812;7.738;2023-11-19T08:15:57;10.50;99.90
3846;DHT22;1938;50.812;7.738;2023-11-19T08:18:24;10.40;99.90
3846;DHT22;1938;50.812;7.738;2023-11-19T08:20:49;10.40;99.90
3846;DHT22;1938;50.812;7.738;2023-11-19T08:23:18;10.50;99.90
3846;DHT22;1938;50.812;7.738;2023-11-19T08:25:44;10.50;99.90
3846;DHT22;1938;50.812;7.738;2023-11-19T08:28:10;10.50;99.90
3846;DHT22;1938;50.812;7.738;2023-11-19T08:30:37;10.20;99.90
3846;DHT22;1938;50.812;7.738;2023-11-19T08:33:02;10.30;99.90
3846;DHT22;1938;50.812;7.738;2023-11-19T08:35:29;10.30;99.90
3846;DHT22;1938;50.812;7.738;2023-11-19T08:37:55;10.40;99.90
3846;DHT22;1938;50.812;7.738;2023-11-19T08:40:20;10.40;99.90
3846;DHT22;1938;50.812;7.738;2023-11-19T08:42:47;10.40;99.90
3846;DHT22;1938;50.812;7.738;2023-11-19T08:45:12;10.40;99.90
3846;DHT22;1938;50.812;7.738;2023-11-19T08:47:38;10.40;99.90
3846;DHT22;1938;50.812;7.738;2023-11-19T08:50:06;10.40;99.90
3846;DHT22;1938;50.812;7.738;2023-11-19T08:52:32;10.40;99.90
3846;DHT22;1938;50.812;7.738;2023-11-19T08:54:57;10.30;99.90
3846;DHT22;1938;50.812;7.738;2023-11-19T08:57:23;10.30;99.90
3846;DHT22;1938;50.812;7.738;2023-11-19T08:59:49;10.30;99.90
3846;DHT22;1938;50.812;7.738;2023-11-19T09:02:14;10.40;99.90
3846;DHT22;1938;50.812;7.738;2023-11-19T09:04:41;10.50;99.90
3846;DHT22;1938;50.812;7.738;2023-11-19T09:07:07;10.60;99.90
3846;DHT22;1938;50.812;7.738;2023-11-19T09:09:35;10.80;99.90
3846;DHT22;1938;50.812;7.738;2023-11-19T09:12:01;11.00;99.90
3846;DHT22;1938;50.812;7.738;2023-11-19T09:14:27;11.30;99.90
3846;DHT22;1938;50.812;7.738;2023-11-19T09:16:53;11.70;99.90
3846;DHT22;1938;50.812;7.738;2023-11-19T09:19:18;12.00;99.90
3846;DHT22;1938;50.812;7.738;2023-11-19T09:21:44;12.20;99.90
3846;DHT22;1938;50.812;7.738;2023-11-19T09:24:10;12.30;99.90
3846;DHT22;1938;50.812;7.738;2023-11-19T09:26:35;12.40;99.90
3846;DHT22;1938;50.812;7.738;2023-11-19T09:29:08;12.50;99.90
3846;DHT22;1938;50.812;7.738;2023-11-19T09:31:33;12.60;99.90
3846;DHT22;1938;50.812;7.738;2023-11-19T09:34:00;12.80;99.90
3846;DHT22;1938;50.812;7.738;2023-11-19T09:36:25;13.00;99.90
3846;DHT22;1938;50.812;7.738;2023-11-19T09:38:51;13.20;99.90
3846;DHT22;1938;50.812;7.738;2023-11-19T09:41:17;13.30;99.90
3846;DHT22;1938;50.812;7.738;2023-11-19T09:43:45;13.40;99.90
3846;DHT22;1938;50.812;7.738;2023-11-19T09:46:11;13.50;99.90
3846;DHT22;1938;50.812;7.738;2023-11-19T09:48:38;13.60;99.90
3846;DHT22;1938;50.812;7.738;2023-11-19T09:51:07;13.60;99.90
3846;DHT22;1938;50.812;7.738;2023-11-19T09:53:33;13.50;99.90
3846;DHT22;1938;50.812;7.738;2023-11-19T09:56:04;13.50;99.90
3846;DHT22;1938;50.812;7.738;2023-11-19T09:58:30;13.40;99.90
3846;DHT22;1938;50.812;7.738;2023-11-19T10:00:57;13.40;99.90
3846;DHT22;1938;50.812;7.738;2023-11-19T10:03:34;13.50;99.90
3846;DHT22;1938;50.812;7.738;2023-11-19T10:06:09;13.40;99.90
3846;DHT22;1938;50.812;7.738;2023-11-19T10:08:39;13.40;99.90
3846;DHT22;1938;50.812;7.738;2023-11-19T10:11:06;13.30;99.90
3846;DHT22;1938;50.812;7.738;2023-11-19T10:13:37;13.20;99.90
3846;DHT22;1938;50.812;7.738;2023-11-19T10:16:11;13.20;99.90
3846;DHT22;1938;50.812;7.738;2023-11-19T10:18:37;13.10;99.90
3846;DHT22;1938;50.812;7.738;2023-11-19T10:21:06;13.00;99.90
3846;DHT22;1938;50.812;7.738;2023-11-19T10:23:47;13.00;99.90
3846;DHT22;1938;50.812;7.738;2023-11-19T10:26:12;13.00;99.90
3846;DHT22;1938;50.812;7.738;2023-11-19T10:28:41;12.90;99.90
3846;DHT22;1938;50.812;7.738;2023-11-19T10:31:09;12.90;99.90
3846;DHT22;1938;50.812;7.738;2023-11-19T10:33:35;12.90;99.90
3846;DHT22;1938;50.812;7.738;2023-11-19T10:36:01;12.90;99.90
3846;DHT22;1938;50.812;7.738;2023-11-19T10:38:27;13.00;99.90
3846;DHT22;1938;50.812;7.738;2023-11-19T10:40:54;12.90;99.90
3846;DHT22;1938;50.812;7.738;2023-11-19T10:43:20;12.90;99.90
3846;DHT22;1938;50.812;7.738;2023-11-19T10:45:50;12.90;99.90
3846;DHT22;1938;50.812;7.738;2023-11-19T10:48:16;12.80;99.90
3846;DHT22;1938;50.812;7.738;2023-11-19T10:50:43;12.80;99.90
3846;DHT22;1938;50.812;7.738;2023-11-19T10:53:11;12.70;99.90
3846;DHT22;1938;50.812;7.738;2023-11-19T10:55:39;12.60;99.90
3846;DHT22;1938;50.812;7.738;2023-11-19T10:58:09;12.70;99.90
3846;DHT22;1938;50.812;7.738;2023-11-19T11:00:39;12.70;99.90
3846;DHT22;1938;50.812;7.738;2023-11-19T11:03:14;12.70;99.90
3846;DHT22;1938;50.812;7.738;2023-11-19T11:05:40;12.80;99.90
3846;DHT22;1938;50.812;7.738;2023-11-19T11:08:07;12.80;99.90
3846;DHT22;1938;50.812;7.738;2023-11-19T11:10:37;12.80;99.90
3846;DHT22;1938;50.812;7.738;2023-11-19T11:13:05;12.80;99.90
3846;DHT22;1938;50.812;7.738;2023-11-19T11:15:31;12.70;99.90
3846;DHT22;1938;50.812;7.738;2023-11-19T11:18:01;12.70;99.90
3846;DHT22;1938;50.812;7.738;2023-11-19T11:20:31;12.70;99.90
3846;DHT22;1938;50.812;7.738;2023-11-19T11:30:55;12.60;99.90
3846;DHT22;1938;50.812;7.738;2023-11-19T11:33:41;12.60;99.90
3846;DHT22;1938;50.812;7.738;2023-11-19T11:36:22;12.60;99.90
3846;DHT22;1938;50.812;7.738;2023-11-19T11:38:49;12.70;99.90
3846;DHT22;1938;50.812;7.738;2023-11-19T11:41:22;12.80;99.90
3846;DHT22;1938;50.812;7.738;2023-11-19T11:43:50;12.70;99.90
3846;DHT22;1938;50.812;7.738;2023-11-19T11:49:07;12.60;99.90
3846;DHT22;1938;50.812;7.738;2023-11-19T11:57:06;12.40;99.90
3846;DHT22;1938;50.812;7.738;2023-11-19T11:59:52;12.40;99.90
3846;DHT22;1938;50.812;7.738;2023-11-19T12:02:20;12.50;99.90
3846;DHT22;1938;50.812;7.738;2023-11-19T12:04:51;12.40;99.90
3846;DHT22;1938;50.812;7.738;2023-11-19T12:07:20;12.40;99.90
3846;DHT22;1938;50.812;7.738;2023-11-19T12:10:08;12.40;99.90
3846;DHT22;1938;50.812;7.738;2023-11-19T12:12:36;12.40;99.90
3846;DHT22;1938;50.812;7.738;2023-11-19T12:15:09;12.40;99.90
3846;DHT22;1938;50.812;7.738;2023-11-19T12:17:46;12.40;99.90
3846;DHT22;1938;50.812;7.738;2023-11-19T12:20:15;12.30;99.90
3846;DHT22;1938;50.812;7.738;2023-11-19T12:22:42;12.20;99.90
3846;DHT22;1938;50.812;7.738;2023-11-19T12:25:10;12.10;99.90
3846;DHT22;1938;50.812;7.738;2023-11-19T12:27:41;11.90;99.90
3846;DHT22;1938;50.812;7.738;2023-11-19T12:30:07;11.80;99.90
3846;DHT22;1938;50.812;7.738;2023-11-19T12:32:44;11.20;99.90
3846;DHT22;1938;50.812;7.738;2023-11-19T12:35:11;10.70;99.90
3846;DHT22;1938;50.812;7.738;2023-11-19T12:37:44;10.40;99.90
3846;DHT22;1938;50.812;7.738;2023-11-19T12:42:54;10.00;99.90
3846;DHT22;1938;50.812;7.738;2023-11-19T12:45:20;10.00;99.90
3846;DHT22;1938;50.812;7.738;2023-11-19T12:47:47;10.10;99.90
3846;DHT22;1938;50.812;7.738;2023-11-19T12:50:15;10.20;99.90
3846;DHT22;1938;50.812;7.738;2023-11-19T12:52:41;10.20;99.90
3846;DHT22;1938;50.812;7.738;2023-11-19T12:55:26;10.20;99.90
3846;DHT22;1938;50.812;7.738;2023-11-19T12:57:52;10.40;99.90
3846;DHT22;1938;50.812;7.738;2023-11-19T13:00:19;10.60;99.90
3846;DHT22;1938;50.812;7.738;2023-11-19T13:05:32;10.60;99.90
3846;DHT22;1938;50.812;7.738;2023-11-19T13:08:02;10.40;99.90
3846;DHT22;1938;50.812;7.738;2023-11-19T13:10:29;10.40;99.90
3846;DHT22;1938;50.812;7.738;2023-11-19T13:13:08;10.30;99.90
3846;DHT22;1938;50.812;7.738;2023-11-19T13:15:34;10.30;99.90
3846;DHT22;1938;50.812;7.738;2023-11-19T13:18:00;10.40;99.90
3846;DHT22;1938;50.812;7.738;2023-11-19T13:20:26;10.60;99.90
3846;DHT22;1938;50.812;7.738;2023-11-19T13:23:02;10.70;99.90
3846;DHT22;1938;50.812;7.738;2023-11-19T13:25:28;10.90;99.90
3846;DHT22;1938;50.812;7.738;2023-11-19T13:27:55;11.00;99.90
3846;DHT22;1938;50.812;7.738;2023-11-19T13:30:21;11.20;99.90
3846;DHT22;1938;50.812;7.738;2023-11-19T13:32:50;11.30;99.90
3846;DHT22;1938;50.812;7.738;2023-11-19T13:35:17;11.50;99.90
3846;DHT22;1938;50.812;7.738;2023-11-19T13:37:44;11.50;99.90
3846;DHT22;1938;50.812;7.738;2023-11-19T13:40:11;11.50;99.90
3846;DHT22;1938;50.812;7.738;2023-11-19T13:42:40;11.60;99.90
3846;DHT22;1938;50.812;7.738;2023-11-19T13:45:10;11.50;99.90
3846;DHT22;1938;50.812;7.738;2023-11-19T13:47:44;11.50;99.90
3846;DHT22;1938;50.812;7.738;2023-11-19T13:50:10;11.50;99.90
3846;DHT22;1938;50.812;7.738;2023-11-19T13:52:40;11.60;99.90
3846;DHT22;1938;50.812;7.738;2023-11-19T13:55:08;11.70;99.90
3846;DHT22;1938;50.812;7.738;2023-11-19T13:57:38;11.80;99.90
3846;DHT22;1938;50.812;7.738;2023-11-19T14:00:05;11.90;99.90
3846;DHT22;1938;50.812;7.738;2023-11-19T14:02:35;11.90;99.90
3846;DHT22;1938;50.812;7.738;2023-11-19T14:05:00;11.90;99.90
3846;DHT22;1938;50.812;7.738;2023-11-19T14:07:26;12.00;99.90
3846;DHT22;1938;50.812;7.738;2023-11-19T14:09:53;11.90;99.90
3846;DHT22;1938;50.812;7.738;2023-11-19T14:12:18;11.90;99.90
3846;DHT22;1938;50.812;7.738;2023-11-19T14:14:44;11.70;99.90
3846;DHT22;1938;50.812;7.738;2023-11-19T14:17:09;11.60;99.90
3846;DHT22;1938;50.812;7.738;2023-11-19T14:19:36;11.60;99.90
3846;DHT22;1938;50.812;7.738;2023-11-19T14:22:05;11.50;99.90
3846;DHT22;1938;50.812;7.738;2023-11-19T14:24:31;11.40;99.90
3846;DHT22;1938;50.812;7.738;2023-11-19T14:26:56;11.00;99.90
3846;DHT22;1938;50.812;7.738;2023-11-19T14:29:24;10.80;99.90
3846;DHT22;1938;50.812;7.738;2023-11-19T14:31:51;10.60;99.90
3846;DHT22;1938;50.812;7.738;2023-11-19T14:34:17;10.40;99.90
3846;DHT22;1938;50.812;7.738;2023-11-19T14:36:44;10.40;99.90
3846;DHT22;1938;50.812;7.738;2023-11-19T14:39:10;10.30;99.90
3846;DHT22;1938;50.812;7.738;2023-11-19T14:41:37;10.20;99.90
3846;DHT22;1938;50.812;7.738;2023-11-19T14:44:02;10.00;99.90
3846;DHT22;1938;50.812;7.738;2023-11-19T14:46:29;9.90;99.90
3846;DHT22;1938;50.812;7.738;2023-11-19T14:48:54;9.90;99.90
3846;DHT22;1938;50.812;7.738;2023-11-19T14:51:20;9.90;99.90
3846;DHT22;1938;50.812;7.738;2023-11-19T14:53:46;9.90;99.90
3846;DHT22;1938;50.812;7.738;2023-11-19T14:56:12;9.80;99.90
3846;DHT22;1938;50.812;7.738;2023-11-19T14:58:38;9.90;99.90
3846;DHT22;1938;50.812;7.738;2023-11-19T15:01:04;9.80;99.90
3846;DHT22;1938;50.812;7.738;2023-11-19T15:03:30;9.90;99.90
3846;DHT22;1938;50.812;7.738;2023-11-19T15:05:56;9.90;99.90
3846;DHT22;1938;50.812;7.738;2023-11-19T15:08:21;10.00;99.90
3846;DHT22;1938;50.812;7.738;2023-11-19T15:10:48;10.00;99.90
3846;DHT22;1938;50.812;7.738;2023-11-19T15:13:14;10.10;99.90
3846;DHT22;1938;50.812;7.738;2023-11-19T15:15:39;10.20;99.90
3846;DHT22;1938;50.812;7.738;2023-11-19T15:18:05;10.20;99.90
3846;DHT22;1938;50.812;7.738;2023-11-19T15:20:31;10.30;99.90
3846;DHT22;1938;50.812;7.738;2023-11-19T15:22:57;10.50;99.90
3846;DHT22;1938;50.812;7.738;2023-11-19T15:25:23;10.50;99.90
3846;DHT22;1938;50.812;7.738;2023-11-19T15:27:49;10.60;99.90
3846;DHT22;1938;50.812;7.738;2023-11-19T15:30:15;10.70;99.90
3846;DHT22;1938;50.812;7.738;2023-11-19T15:32:41;10.80;99.90
3846;DHT22;1938;50.812;7.738;2023-11-19T15:35:08;10.80;99.90
3846;DHT22;1938;50.812;7.738;2023-11-19T15:37:34;10.80;99.90
3846;DHT22;1938;50.812;7.738;2023-11-19T15:40:00;10.80;99.90
3846;DHT22;1938;50.812;7.738;2023-11-19T15:42:26;10.90;99.90
3846;DHT22;1938;50.812;7.738;2023-11-19T15:44:51;10.90;99.90
3846;DHT22;1938;50.812;7.738;2023-11-19T15:47:17;10.90;99.90
3846;DHT22;1938;50.812;7.738;2023-11-19T15:49:42;10.90;99.90
3846;DHT22;1938;50.812;7.738;2023-11-19T15:52:08;10.90;99.90
3846;DHT22;1938;50.812;7.738;2023-11-19T15:54:34;10.90;99.90
3846;DHT22;1938;50.812;7.738;2023-11-19T15:57:00;10.90;99.90
3846;DHT22;1938;50.812;7.738;2023-11-19T15:59:26;10.90;99.90
3846;DHT22;1938;50.812;7.738;2023-11-19T16:01:52;10.90;99.90
3846;DHT22;1938;50.812;7.738;2023-11-19T16:04:18;10.90;99.90
3846;DHT22;1938;50.812;7.738;2023-11-19T16:06:44;10.80;99.90
3846;DHT22;1938;50.812;7.738;2023-11-19T16:09:09;10.80;99.90
3846;DHT22;1938;50.812;7.738;2023-11-19T16:11:40;10.90;99.90
3846;DHT22;1938;50.812;7.738;2023-11-19T16:14:09;10.80;99.90
3846;DHT22;1938;50.812;7.738;2023-11-19T16:16:35;10.80;99.90
3846;DHT22;1938;50.812;7.738;2023-11-19T16:19:00;10.90;99.90
3846;DHT22;1938;50.812;7.738;2023-11-19T16:21:26;10.90;99.90
3846;DHT22;1938;50.812;7.738;2023-11-19T16:23:52;10.90;99.90
3846;DHT22;1938;50.812;7.738;2023-11-19T16:26:17;10.90;99.90
3846;DHT22;1938;50.812;7.738;2023-11-19T16:28:43;10.90;99.90
3846;DHT22;1938;50.812;7.738;2023-11-19T16:31:09;10.90;99.90